Syosyun — JD2406 — position and weather

sailwx.info

Track history (hours):
 
Tides and Currents Weather Stations Pressure Air Temp Water Temp Dewpoint Dewpoint Depression Visibility Wind Speed Wind Dir Waves Ship Positions

Syosyun

Last reported at 2016-Apr-26 23:33 UTC. Time now 2016-May-03 05:00 UTC.
Position N 34°54' E 139°57'.

Length 74 m; draft 3.5 m.

Type: Cargo ship. MMSI: 431000201.

Date/timePositionNaut miles runAvg speedWind from/ knotsBaromVisibWave heightAir tempDewpointWater temp
2016-Apr-26 23:33N 34°54' E 139°57'1211.5
2016-Apr-26 22:29N 34°60' E 140°11'2210.5
2016-Apr-26 20:22N 35°14' E 140°32'1011.1
2016-Apr-26 19:27N 35°22' E 140°38'2311.3
2016-Apr-26 17:24N 35°41' E 140°54'2411.3
2016-Apr-26 15:16N 36°05' E 140°56'1311.4
2016-Apr-26 14:07N 36°18' E 140°57'  
2016-Apr-24 01:17N 36°12' E 140°44'811.2
2016-Apr-24 00:32N 36°04' E 140°44'1110.9
2016-Apr-23 23:33N 35°54' E 140°48'20 8.9
2016-Apr-23 21:21N 35°34' E 140°48'910.5
2016-Apr-23 20:28N 35°26' E 140°42'1311.8
2016-Apr-23 19:22N 35°15' E 140°33'1113.0
2016-Apr-23 18:32N 35°07' E 140°24'1212.6
2016-Apr-23 17:33N 35°01' E 140°12'1211.7
2016-Apr-23 16:32N 34°54' E 139°60'1211.7
2016-Apr-23 15:33N 34°48' E 139°47'  
Track history (hours):
 
Tides and Currents Weather Stations Pressure Air Temp Water Temp Dewpoint Dewpoint Depression Visibility Wind Speed Wind Dir Waves Ship Positions

Syosyun

Last reported at 2016-Apr-26 23:33 UTC. Time now 2016-May-03 05:00 UTC.
Position N 34°54' E 139°57'.

Length 74 m; draft 3.5 m.

Type: Cargo ship. MMSI: 431000201.

Date/timePositionNaut miles runAvg speedWind from/ knotsBaromVisibWave heightAir tempDewpointWater temp
2016-Apr-26 23:33N 34°54' E 139°57'1211.5
2016-Apr-26 22:29N 34°60' E 140°11'2210.5
2016-Apr-26 20:22N 35°14' E 140°32'1011.1
2016-Apr-26 19:27N 35°22' E 140°38'2311.3
2016-Apr-26 17:24N 35°41' E 140°54'2411.3
2016-Apr-26 15:16N 36°05' E 140°56'1311.4
2016-Apr-26 14:07N 36°18' E 140°57'  
2016-Apr-24 01:17N 36°12' E 140°44'811.2
2016-Apr-24 00:32N 36°04' E 140°44'1110.9
2016-Apr-23 23:33N 35°54' E 140°48'20 8.9
2016-Apr-23 21:21N 35°34' E 140°48'910.5
2016-Apr-23 20:28N 35°26' E 140°42'1311.8
2016-Apr-23 19:22N 35°15' E 140°33'1113.0
2016-Apr-23 18:32N 35°07' E 140°24'1212.6
2016-Apr-23 17:33N 35°01' E 140°12'1211.7
2016-Apr-23 16:32N 34°54' E 139°60'1211.7
2016-Apr-23 15:33N 34°48' E 139°47'  

Dump ship's entire track history